sensor_id;sensor_type;location;lat;lon;timestamp;P1;durP1;ratioP1;P2;durP2;ratioP2
17566;SDS011;8901;52.088;5.084;2022-10-10T00:01:14;17.70;;;16.50;;
17566;SDS011;8901;52.088;5.084;2022-10-10T00:03:42;16.10;;;14.90;;
17566;SDS011;8901;52.088;5.084;2022-10-10T00:06:12;15.03;;;13.83;;
17566;SDS011;8901;52.088;5.084;2022-10-10T00:08:42;16.10;;;14.77;;
17566;SDS011;8901;52.088;5.084;2022-10-10T00:11:11;16.63;;;15.23;;
17566;SDS011;8901;52.088;5.084;2022-10-10T00:13:40;15.93;;;14.83;;
17566;SDS011;8901;52.088;5.084;2022-10-10T00:16:08;16.80;;;15.50;;
17566;SDS011;8901;52.088;5.084;2022-10-10T00:18:37;16.17;;;14.70;;
17566;SDS011;8901;52.088;5.084;2022-10-10T00:21:06;14.50;;;13.40;;
17566;SDS011;8901;52.088;5.084;2022-10-10T00:23:34;15.57;;;14.47;;
17566;SDS011;8901;52.088;5.084;2022-10-10T00:26:03;15.17;;;13.73;;
17566;SDS011;8901;52.088;5.084;2022-10-10T00:28:30;16.80;;;15.50;;
17566;SDS011;8901;52.088;5.084;2022-10-10T00:31:00;15.43;;;14.10;;
17566;SDS011;8901;52.088;5.084;2022-10-10T00:33:27;13.43;;;12.43;;
17566;SDS011;8901;52.088;5.084;2022-10-10T00:38:25;14.87;;;13.80;;
17566;SDS011;8901;52.088;5.084;2022-10-10T00:40:57;13.53;;;12.63;;
17566;SDS011;8901;52.088;5.084;2022-10-10T00:45:57;13.40;;;12.50;;
17566;SDS011;8901;52.088;5.084;2022-10-10T00:48:25;14.53;;;13.43;;
17566;SDS011;8901;52.088;5.084;2022-10-10T00:50:58;15.30;;;14.10;;
17566;SDS011;8901;52.088;5.084;2022-10-10T00:53:29;14.63;;;13.53;;
17566;SDS011;8901;52.088;5.084;2022-10-10T00:55:59;14.30;;;13.23;;
17566;SDS011;8901;52.088;5.084;2022-10-10T00:58:29;14.30;;;13.30;;
17566;SDS011;8901;52.088;5.084;2022-10-10T01:00:58;15.67;;;14.57;;
17566;SDS011;8901;52.088;5.084;2022-10-10T01:05:55;14.57;;;13.57;;
17566;SDS011;8901;52.088;5.084;2022-10-10T01:08:22;15.03;;;13.93;;
17566;SDS011;8901;52.088;5.084;2022-10-10T01:11:05;13.63;;;12.63;;
17566;SDS011;8901;52.088;5.084;2022-10-10T01:13:48;14.53;;;13.37;;
17566;SDS011;8901;52.088;5.084;2022-10-10T01:16:25;15.33;;;14.23;;
17566;SDS011;8901;52.088;5.084;2022-10-10T01:19:03;15.67;;;14.27;;
17566;SDS011;8901;52.088;5.084;2022-10-10T01:21:45;14.87;;;13.60;;
17566;SDS011;8901;52.088;5.084;2022-10-10T01:24:26;13.57;;;12.37;;
17566;SDS011;8901;52.088;5.084;2022-10-10T01:27:17;14.40;;;13.40;;
17566;SDS011;8901;52.088;5.084;2022-10-10T01:29:52;14.50;;;13.30;;
17566;SDS011;8901;52.088;5.084;2022-10-10T01:32:22;14.93;;;13.67;;
17566;SDS011;8901;52.088;5.084;2022-10-10T01:34:59;15.17;;;14.13;;
17566;SDS011;8901;52.088;5.084;2022-10-10T01:37:35;14.80;;;13.67;;
17566;SDS011;8901;52.088;5.084;2022-10-10T01:40:08;15.00;;;13.77;;
17566;SDS011;8901;52.088;5.084;2022-10-10T01:42:41;13.67;;;12.47;;
17566;SDS011;8901;52.088;5.084;2022-10-10T01:45:14;14.47;;;13.27;;
17566;SDS011;8901;52.088;5.084;2022-10-10T01:47:47;15.53;;;14.13;;
17566;SDS011;8901;52.088;5.084;2022-10-10T01:50:29;15.30;;;14.00;;
17566;SDS011;8901;52.088;5.084;2022-10-10T01:53:01;14.20;;;12.87;;
17566;SDS011;8901;52.088;5.084;2022-10-10T01:55:43;14.43;;;13.43;;
17566;SDS011;8901;52.088;5.084;2022-10-10T01:58:17;15.73;;;14.13;;
17566;SDS011;8901;52.088;5.084;2022-10-10T02:01:04;14.87;;;13.77;;
17566;SDS011;8901;52.088;5.084;2022-10-10T02:03:36;14.97;;;13.83;;
17566;SDS011;8901;52.088;5.084;2022-10-10T02:08:44;14.17;;;13.23;;
17566;SDS011;8901;52.088;5.084;2022-10-10T02:11:16;14.13;;;13.10;;
17566;SDS011;8901;52.088;5.084;2022-10-10T02:13:44;14.00;;;12.90;;
17566;SDS011;8901;52.088;5.084;2022-10-10T02:16:17;14.87;;;13.60;;
17566;SDS011;8901;52.088;5.084;2022-10-10T02:18:47;13.50;;;12.50;;
17566;SDS011;8901;52.088;5.084;2022-10-10T02:21:16;14.47;;;13.43;;
17566;SDS011;8901;52.088;5.084;2022-10-10T02:23:44;14.83;;;13.63;;
17566;SDS011;8901;52.088;5.084;2022-10-10T02:26:15;15.07;;;13.63;;
17566;SDS011;8901;52.088;5.084;2022-10-10T02:28:45;14.43;;;13.37;;
17566;SDS011;8901;52.088;5.084;2022-10-10T02:31:18;14.20;;;13.10;;
17566;SDS011;8901;52.088;5.084;2022-10-10T02:33:49;14.27;;;13.27;;
17566;SDS011;8901;52.088;5.084;2022-10-10T02:36:21;15.10;;;14.00;;
17566;SDS011;8901;52.088;5.084;2022-10-10T02:38:50;15.33;;;14.13;;
17566;SDS011;8901;52.088;5.084;2022-10-10T02:41:19;13.47;;;12.47;;
17566;SDS011;8901;52.088;5.084;2022-10-10T02:43:47;15.23;;;13.80;;
17566;SDS011;8901;52.088;5.084;2022-10-10T02:46:15;14.43;;;13.33;;
17566;SDS011;8901;52.088;5.084;2022-10-10T02:48:44;14.63;;;13.43;;
17566;SDS011;8901;52.088;5.084;2022-10-10T02:51:11;15.03;;;13.93;;
17566;SDS011;8901;52.088;5.084;2022-10-10T02:53:39;14.63;;;13.63;;
17566;SDS011;8901;52.088;5.084;2022-10-10T02:56:06;14.60;;;13.57;;
17566;SDS011;8901;52.088;5.084;2022-10-10T02:58:33;14.30;;;13.20;;
17566;SDS011;8901;52.088;5.084;2022-10-10T03:01:00;13.80;;;12.83;;
17566;SDS011;8901;52.088;5.084;2022-10-10T03:03:28;14.77;;;13.70;;
17566;SDS011;8901;52.088;5.084;2022-10-10T03:05:55;14.30;;;13.30;;
17566;SDS011;8901;52.088;5.084;2022-10-10T03:08:22;14.80;;;13.70;;
17566;SDS011;8901;52.088;5.084;2022-10-10T03:10:55;14.13;;;13.03;;
17566;SDS011;8901;52.088;5.084;2022-10-10T03:13:23;13.83;;;12.80;;
17566;SDS011;8901;52.088;5.084;2022-10-10T03:15:50;14.03;;;13.03;;
17566;SDS011;8901;52.088;5.084;2022-10-10T03:18:17;14.43;;;13.33;;
17566;SDS011;8901;52.088;5.084;2022-10-10T03:20:49;14.80;;;13.60;;
17566;SDS011;8901;52.088;5.084;2022-10-10T03:23:17;14.67;;;13.57;;
17566;SDS011;8901;52.088;5.084;2022-10-10T03:25:44;15.13;;;13.63;;
17566;SDS011;8901;52.088;5.084;2022-10-10T03:28:11;13.00;;;12.07;;
17566;SDS011;8901;52.088;5.084;2022-10-10T03:30:38;13.40;;;12.33;;
17566;SDS011;8901;52.088;5.084;2022-10-10T03:33:05;13.77;;;12.57;;
17566;SDS011;8901;52.088;5.084;2022-10-10T03:35:32;13.87;;;12.87;;
17566;SDS011;8901;52.088;5.084;2022-10-10T03:38:02;13.20;;;12.10;;
17566;SDS011;8901;52.088;5.084;2022-10-10T03:40:30;14.00;;;12.87;;
17566;SDS011;8901;52.088;5.084;2022-10-10T03:42:57;13.80;;;12.60;;
17566;SDS011;8901;52.088;5.084;2022-10-10T03:45:24;14.10;;;13.10;;
17566;SDS011;8901;52.088;5.084;2022-10-10T03:47:51;14.07;;;13.10;;
17566;SDS011;8901;52.088;5.084;2022-10-10T03:50:18;14.83;;;13.30;;
17566;SDS011;8901;52.088;5.084;2022-10-10T03:52:45;12.03;;;11.13;;
17566;SDS011;8901;52.088;5.084;2022-10-10T03:55:13;13.53;;;12.43;;
17566;SDS011;8901;52.088;5.084;2022-10-10T03:57:40;14.30;;;13.10;;
17566;SDS011;8901;52.088;5.084;2022-10-10T04:02:58;14.50;;;12.80;;
17566;SDS011;8901;52.088;5.084;2022-10-10T04:05:30;14.30;;;13.10;;
17566;SDS011;8901;52.088;5.084;2022-10-10T04:07:57;13.50;;;12.27;;
17566;SDS011;8901;52.088;5.084;2022-10-10T04:10:25;13.50;;;12.60;;
17566;SDS011;8901;52.088;5.084;2022-10-10T04:12:52;13.17;;;12.07;;
17566;SDS011;8901;52.088;5.084;2022-10-10T04:15:20;13.13;;;12.00;;
17566;SDS011;8901;52.088;5.084;2022-10-10T04:17:47;13.70;;;12.40;;
17566;SDS011;8901;52.088;5.084;2022-10-10T04:20:14;13.10;;;12.00;;
17566;SDS011;8901;52.088;5.084;2022-10-10T04:22:42;13.70;;;12.40;;
17566;SDS011;8901;52.088;5.084;2022-10-10T04:25:08;13.50;;;12.40;;
17566;SDS011;8901;52.088;5.084;2022-10-10T04:27:37;14.07;;;12.97;;
17566;SDS011;8901;52.088;5.084;2022-10-10T04:30:04;14.20;;;12.83;;
17566;SDS011;8901;52.088;5.084;2022-10-10T04:32:32;13.63;;;12.63;;
17566;SDS011;8901;52.088;5.084;2022-10-10T04:34:59;13.80;;;12.60;;
17566;SDS011;8901;52.088;5.084;2022-10-10T04:37:25;13.20;;;12.20;;
17566;SDS011;8901;52.088;5.084;2022-10-10T04:39:52;12.50;;;11.60;;
17566;SDS011;8901;52.088;5.084;2022-10-10T04:42:19;14.70;;;13.50;;
17566;SDS011;8901;52.088;5.084;2022-10-10T04:44:47;14.17;;;13.03;;
17566;SDS011;8901;52.088;5.084;2022-10-10T04:47:14;13.33;;;12.40;;
17566;SDS011;8901;52.088;5.084;2022-10-10T04:49:42;12.80;;;11.90;;
17566;SDS011;8901;52.088;5.084;2022-10-10T04:52:09;13.80;;;12.50;;
17566;SDS011;8901;52.088;5.084;2022-10-10T04:54:36;12.47;;;11.47;;
17566;SDS011;8901;52.088;5.084;2022-10-10T04:57:03;13.10;;;11.97;;
17566;SDS011;8901;52.088;5.084;2022-10-10T04:59:31;12.73;;;11.83;;
17566;SDS011;8901;52.088;5.084;2022-10-10T05:01:59;12.87;;;11.53;;
17566;SDS011;8901;52.088;5.084;2022-10-10T05:04:26;15.40;;;12.07;;
17566;SDS011;8901;52.088;5.084;2022-10-10T05:06:53;13.37;;;12.37;;
17566;SDS011;8901;52.088;5.084;2022-10-10T05:09:19;12.97;;;11.80;;
17566;SDS011;8901;52.088;5.084;2022-10-10T05:11:46;13.43;;;12.07;;
17566;SDS011;8901;52.088;5.084;2022-10-10T05:14:13;13.10;;;12.10;;
17566;SDS011;8901;52.088;5.084;2022-10-10T05:16:40;12.70;;;11.70;;
17566;SDS011;8901;52.088;5.084;2022-10-10T05:19:08;12.73;;;11.67;;
17566;SDS011;8901;52.088;5.084;2022-10-10T05:21:35;11.83;;;10.97;;
17566;SDS011;8901;52.088;5.084;2022-10-10T05:24:02;14.23;;;13.10;;
17566;SDS011;8901;52.088;5.084;2022-10-10T05:26:29;13.10;;;12.00;;
17566;SDS011;8901;52.088;5.084;2022-10-10T05:28:56;12.00;;;11.00;;
17566;SDS011;8901;52.088;5.084;2022-10-10T05:31:23;13.53;;;12.60;;
17566;SDS011;8901;52.088;5.084;2022-10-10T05:33:50;11.77;;;10.67;;
17566;SDS011;8901;52.088;5.084;2022-10-10T05:36:18;10.80;;;9.70;;
17566;SDS011;8901;52.088;5.084;2022-10-10T05:38:45;11.97;;;10.40;;
17566;SDS011;8901;52.088;5.084;2022-10-10T05:41:12;10.10;;;9.10;;
17566;SDS011;8901;52.088;5.084;2022-10-10T05:43:38;11.47;;;10.47;;
17566;SDS011;8901;52.088;5.084;2022-10-10T05:46:05;9.63;;;8.93;;
17566;SDS011;8901;52.088;5.084;2022-10-10T05:48:32;11.67;;;10.63;;
17566;SDS011;8901;52.088;5.084;2022-10-10T05:50:59;11.00;;;9.90;;
17566;SDS011;8901;52.088;5.084;2022-10-10T05:53:28;11.37;;;10.47;;
17566;SDS011;8901;52.088;5.084;2022-10-10T05:55:55;9.83;;;8.97;;
17566;SDS011;8901;52.088;5.084;2022-10-10T05:58:22;10.83;;;9.80;;
17566;SDS011;8901;52.088;5.084;2022-10-10T06:00:49;11.17;;;10.13;;
17566;SDS011;8901;52.088;5.084;2022-10-10T06:03:16;11.50;;;10.40;;
17566;SDS011;8901;52.088;5.084;2022-10-10T06:05:43;11.13;;;10.07;;
17566;SDS011;8901;52.088;5.084;2022-10-10T06:08:12;11.87;;;10.87;;
17566;SDS011;8901;52.088;5.084;2022-10-10T06:10:42;11.03;;;10.10;;
17566;SDS011;8901;52.088;5.084;2022-10-10T06:13:10;10.90;;;9.97;;
17566;SDS011;8901;52.088;5.084;2022-10-10T06:15:38;11.80;;;10.50;;
17566;SDS011;8901;52.088;5.084;2022-10-10T06:18:05;11.37;;;10.23;;
17566;SDS011;8901;52.088;5.084;2022-10-10T06:20:32;11.33;;;10.20;;
17566;SDS011;8901;52.088;5.084;2022-10-10T06:23:00;11.30;;;9.40;;
17566;SDS011;8901;52.088;5.084;2022-10-10T06:25:27;11.23;;;10.07;;
17566;SDS011;8901;52.088;5.084;2022-10-10T06:27:55;8.73;;;7.67;;
17566;SDS011;8901;52.088;5.084;2022-10-10T06:30:22;9.43;;;7.60;;
17566;SDS011;8901;52.088;5.084;2022-10-10T06:32:48;9.50;;;8.47;;
17566;SDS011;8901;52.088;5.084;2022-10-10T06:35:16;13.73;;;7.40;;
17566;SDS011;8901;52.088;5.084;2022-10-10T06:37:42;9.50;;;7.80;;
17566;SDS011;8901;52.088;5.084;2022-10-10T06:40:09;8.87;;;7.70;;
17566;SDS011;8901;52.088;5.084;2022-10-10T06:42:36;9.47;;;7.80;;
17566;SDS011;8901;52.088;5.084;2022-10-10T06:45:05;9.70;;;7.67;;
17566;SDS011;8901;52.088;5.084;2022-10-10T06:47:33;9.50;;;7.30;;
17566;SDS011;8901;52.088;5.084;2022-10-10T06:50:00;10.87;;;8.00;;
17566;SDS011;8901;52.088;5.084;2022-10-10T06:52:27;9.13;;;7.60;;
17566;SDS011;8901;52.088;5.084;2022-10-10T06:54:54;9.27;;;8.47;;
17566;SDS011;8901;52.088;5.084;2022-10-10T06:57:21;9.40;;;8.63;;
17566;SDS011;8901;52.088;5.084;2022-10-10T06:59:47;9.53;;;7.93;;
17566;SDS011;8901;52.088;5.084;2022-10-10T07:02:16;11.17;;;7.67;;
17566;SDS011;8901;52.088;5.084;2022-10-10T07:04:43;8.53;;;7.43;;
17566;SDS011;8901;52.088;5.084;2022-10-10T07:07:10;8.20;;;7.40;;
17566;SDS011;8901;52.088;5.084;2022-10-10T07:09:37;9.00;;;8.20;;
17566;SDS011;8901;52.088;5.084;2022-10-10T07:12:04;12.80;;;8.73;;
17566;SDS011;8901;52.088;5.084;2022-10-10T07:14:31;8.93;;;8.03;;
17566;SDS011;8901;52.088;5.084;2022-10-10T07:16:58;10.53;;;7.53;;
17566;SDS011;8901;52.088;5.084;2022-10-10T07:19:26;8.77;;;7.63;;
17566;SDS011;8901;52.088;5.084;2022-10-10T07:21:53;8.33;;;7.43;;
17566;SDS011;8901;52.088;5.084;2022-10-10T07:24:20;9.00;;;8.10;;
17566;SDS011;8901;52.088;5.084;2022-10-10T07:26:48;10.40;;;7.80;;
17566;SDS011;8901;52.088;5.084;2022-10-10T07:29:18;8.37;;;7.30;;
17566;SDS011;8901;52.088;5.084;2022-10-10T07:31:45;11.83;;;8.17;;
17566;SDS011;8901;52.088;5.084;2022-10-10T07:34:12;10.57;;;7.77;;
17566;SDS011;8901;52.088;5.084;2022-10-10T07:36:40;9.73;;;8.00;;
17566;SDS011;8901;52.088;5.084;2022-10-10T07:39:07;9.30;;;7.83;;
17566;SDS011;8901;52.088;5.084;2022-10-10T07:41:34;10.63;;;7.93;;
17566;SDS011;8901;52.088;5.084;2022-10-10T07:44:01;9.73;;;7.83;;
17566;SDS011;8901;52.088;5.084;2022-10-10T07:46:28;8.73;;;7.83;;
17566;SDS011;8901;52.088;5.084;2022-10-10T07:48:57;9.20;;;7.27;;
17566;SDS011;8901;52.088;5.084;2022-10-10T07:51:24;9.50;;;7.03;;
17566;SDS011;8901;52.088;5.084;2022-10-10T07:53:52;7.70;;;6.87;;
17566;SDS011;8901;52.088;5.084;2022-10-10T07:56:19;10.63;;;7.57;;
17566;SDS011;8901;52.088;5.084;2022-10-10T07:58:46;9.43;;;7.40;;
17566;SDS011;8901;52.088;5.084;2022-10-10T08:01:13;8.60;;;7.70;;
17566;SDS011;8901;52.088;5.084;2022-10-10T08:03:40;11.70;;;6.70;;
17566;SDS011;8901;52.088;5.084;2022-10-10T08:06:08;7.90;;;6.97;;
17566;SDS011;8901;52.088;5.084;2022-10-10T08:08:36;12.43;;;7.30;;
17566;SDS011;8901;52.088;5.084;2022-10-10T08:11:05;10.77;;;7.30;;
17566;SDS011;8901;52.088;5.084;2022-10-10T08:13:33;11.30;;;7.30;;
17566;SDS011;8901;52.088;5.084;2022-10-10T08:16:01;8.77;;;7.87;;
17566;SDS011;8901;52.088;5.084;2022-10-10T08:18:29;11.77;;;8.60;;
17566;SDS011;8901;52.088;5.084;2022-10-10T08:20:59;8.43;;;7.40;;
17566;SDS011;8901;52.088;5.084;2022-10-10T08:23:27;12.67;;;7.90;;
17566;SDS011;8901;52.088;5.084;2022-10-10T08:25:57;10.27;;;8.33;;
17566;SDS011;8901;52.088;5.084;2022-10-10T08:28:25;9.33;;;8.10;;
17566;SDS011;8901;52.088;5.084;2022-10-10T08:30:53;10.97;;;8.47;;
17566;SDS011;8901;52.088;5.084;2022-10-10T08:33:20;12.00;;;8.53;;
17566;SDS011;8901;52.088;5.084;2022-10-10T08:35:47;9.70;;;8.83;;
17566;SDS011;8901;52.088;5.084;2022-10-10T08:38:13;9.40;;;8.53;;
17566;SDS011;8901;52.088;5.084;2022-10-10T08:40:41;11.67;;;10.07;;
17566;SDS011;8901;52.088;5.084;2022-10-10T08:43:11;12.23;;;9.83;;
17566;SDS011;8901;52.088;5.084;2022-10-10T08:45:47;11.40;;;10.20;;
17566;SDS011;8901;52.088;5.084;2022-10-10T08:48:16;10.20;;;9.20;;
17566;SDS011;8901;52.088;5.084;2022-10-10T08:50:50;13.10;;;9.87;;
17566;SDS011;8901;52.088;5.084;2022-10-10T08:53:23;10.40;;;9.40;;
17566;SDS011;8901;52.088;5.084;2022-10-10T08:55:55;11.07;;;9.97;;
17566;SDS011;8901;52.088;5.084;2022-10-10T08:58:25;11.07;;;10.03;;
17566;SDS011;8901;52.088;5.084;2022-10-10T09:00:58;10.57;;;9.47;;
17566;SDS011;8901;52.088;5.084;2022-10-10T09:03:33;13.23;;;10.60;;
17566;SDS011;8901;52.088;5.084;2022-10-10T09:06:05;11.37;;;10.30;;
17566;SDS011;8901;52.088;5.084;2022-10-10T09:08:47;11.60;;;9.50;;
17566;SDS011;8901;52.088;5.084;2022-10-10T09:11:27;11.97;;;9.30;;
17566;SDS011;8901;52.088;5.084;2022-10-10T09:14:06;10.07;;;9.07;;
17566;SDS011;8901;52.088;5.084;2022-10-10T09:16:42;11.50;;;9.50;;
17566;SDS011;8901;52.088;5.084;2022-10-10T09:19:23;8.90;;;8.10;;
17566;SDS011;8901;52.088;5.084;2022-10-10T09:22:02;10.57;;;9.57;;
17566;SDS011;8901;52.088;5.084;2022-10-10T09:24:35;10.03;;;9.13;;
17566;SDS011;8901;52.088;5.084;2022-10-10T09:27:05;10.83;;;8.77;;
17566;SDS011;8901;52.088;5.084;2022-10-10T09:29:39;10.20;;;8.40;;
17566;SDS011;8901;52.088;5.084;2022-10-10T09:32:12;10.60;;;8.33;;
17566;SDS011;8901;52.088;5.084;2022-10-10T09:34:41;10.00;;;8.17;;
17566;SDS011;8901;52.088;5.084;2022-10-10T09:37:11;9.33;;;8.03;;
17566;SDS011;8901;52.088;5.084;2022-10-10T09:39:42;14.43;;;8.00;;
17566;SDS011;8901;52.088;5.084;2022-10-10T09:42:14;9.23;;;8.23;;
17566;SDS011;8901;52.088;5.084;2022-10-10T09:44:44;8.33;;;7.37;;
17566;SDS011;8901;52.088;5.084;2022-10-10T09:47:13;9.03;;;7.37;;
17566;SDS011;8901;52.088;5.084;2022-10-10T09:49:41;9.17;;;8.30;;
17566;SDS011;8901;52.088;5.084;2022-10-10T09:52:16;12.93;;;8.27;;
17566;SDS011;8901;52.088;5.084;2022-10-10T09:54:54;9.10;;;7.63;;
17566;SDS011;8901;52.088;5.084;2022-10-10T09:57:24;9.97;;;8.17;;
17566;SDS011;8901;52.088;5.084;2022-10-10T09:59:54;9.23;;;7.33;;
17566;SDS011;8901;52.088;5.084;2022-10-10T10:02:23;8.60;;;7.70;;
17566;SDS011;8901;52.088;5.084;2022-10-10T10:04:52;10.73;;;8.70;;
17566;SDS011;8901;52.088;5.084;2022-10-10T10:07:25;11.03;;;8.10;;
17566;SDS011;8901;52.088;5.084;2022-10-10T10:09:54;12.30;;;8.87;;
17566;SDS011;8901;52.088;5.084;2022-10-10T10:12:23;7.90;;;7.10;;
17566;SDS011;8901;52.088;5.084;2022-10-10T10:14:57;9.87;;;7.50;;
17566;SDS011;8901;52.088;5.084;2022-10-10T10:17:27;11.73;;;7.87;;
17566;SDS011;8901;52.088;5.084;2022-10-10T10:19:54;13.17;;;10.30;;
17566;SDS011;8901;52.088;5.084;2022-10-10T10:22:22;8.90;;;7.57;;
17566;SDS011;8901;52.088;5.084;2022-10-10T10:25:00;9.17;;;7.27;;
17566;SDS011;8901;52.088;5.084;2022-10-10T10:28:04;8.03;;;7.10;;
17566;SDS011;8901;52.088;5.084;2022-10-10T10:30:40;10.73;;;7.37;;
17566;SDS011;8901;52.088;5.084;2022-10-10T10:33:11;8.93;;;6.17;;
17566;SDS011;8901;52.088;5.084;2022-10-10T10:35:44;10.10;;;6.73;;
17566;SDS011;8901;52.088;5.084;2022-10-10T10:38:19;8.33;;;7.43;;
17566;SDS011;8901;52.088;5.084;2022-10-10T10:40:54;8.43;;;6.80;;
17566;SDS011;8901;52.088;5.084;2022-10-10T10:43:33;9.27;;;7.60;;
17566;SDS011;8901;52.088;5.084;2022-10-10T10:46:13;8.57;;;6.87;;
17566;SDS011;8901;52.088;5.084;2022-10-10T10:48:51;7.57;;;6.60;;
17566;SDS011;8901;52.088;5.084;2022-10-10T10:54:33;10.60;;;7.17;;
17566;SDS011;8901;52.088;5.084;2022-10-10T10:57:10;14.10;;;7.13;;
17566;SDS011;8901;52.088;5.084;2022-10-10T10:59:45;11.37;;;7.57;;
17566;SDS011;8901;52.088;5.084;2022-10-10T11:02:31;10.00;;;7.03;;
17566;SDS011;8901;52.088;5.084;2022-10-10T11:05:10;10.80;;;6.80;;
17566;SDS011;8901;52.088;5.084;2022-10-10T11:07:57;10.47;;;6.80;;
17566;SDS011;8901;52.088;5.084;2022-10-10T11:10:36;11.20;;;6.80;;
17566;SDS011;8901;52.088;5.084;2022-10-10T11:13:28;9.37;;;6.80;;
17566;SDS011;8901;52.088;5.084;2022-10-10T11:16:04;9.40;;;6.27;;
17566;SDS011;8901;52.088;5.084;2022-10-10T11:18:37;10.47;;;6.50;;
17566;SDS011;8901;52.088;5.084;2022-10-10T11:21:13;10.47;;;7.37;;
17566;SDS011;8901;52.088;5.084;2022-10-10T11:23:45;9.00;;;7.00;;
17566;SDS011;8901;52.088;5.084;2022-10-10T11:26:17;10.53;;;7.07;;
17566;SDS011;8901;52.088;5.084;2022-10-10T11:28:48;11.13;;;6.90;;
17566;SDS011;8901;52.088;5.084;2022-10-10T11:31:19;11.53;;;6.93;;
17566;SDS011;8901;52.088;5.084;2022-10-10T11:33:50;10.10;;;6.57;;
17566;SDS011;8901;52.088;5.084;2022-10-10T11:36:22;10.07;;;6.00;;
17566;SDS011;8901;52.088;5.084;2022-10-10T11:38:52;11.53;;;6.67;;
17566;SDS011;8901;52.088;5.084;2022-10-10T11:41:24;13.23;;;6.37;;
17566;SDS011;8901;52.088;5.084;2022-10-10T11:43:59;10.60;;;6.27;;
17566;SDS011;8901;52.088;5.084;2022-10-10T11:46:32;14.20;;;6.03;;
17566;SDS011;8901;52.088;5.084;2022-10-10T11:49:05;11.53;;;7.00;;
17566;SDS011;8901;52.088;5.084;2022-10-10T11:51:38;12.13;;;7.10;;
17566;SDS011;8901;52.088;5.084;2022-10-10T11:54:13;10.23;;;6.77;;
17566;SDS011;8901;52.088;5.084;2022-10-10T11:56:48;10.63;;;6.50;;
17566;SDS011;8901;52.088;5.084;2022-10-10T11:59:20;8.47;;;7.00;;
17566;SDS011;8901;52.088;5.084;2022-10-10T12:02:08;10.97;;;7.57;;
17566;SDS011;8901;52.088;5.084;2022-10-10T12:04:42;10.70;;;7.07;;
17566;SDS011;8901;52.088;5.084;2022-10-10T12:07:12;10.03;;;7.17;;
17566;SDS011;8901;52.088;5.084;2022-10-10T12:09:44;10.63;;;6.80;;
17566;SDS011;8901;52.088;5.084;2022-10-10T12:12:17;11.63;;;7.07;;
17566;SDS011;8901;52.088;5.084;2022-10-10T12:14:47;8.37;;;6.80;;
17566;SDS011;8901;52.088;5.084;2022-10-10T12:17:18;9.80;;;6.80;;
17566;SDS011;8901;52.088;5.084;2022-10-10T12:19:49;8.73;;;6.07;;
17566;SDS011;8901;52.088;5.084;2022-10-10T12:22:24;10.57;;;6.60;;
17566;SDS011;8901;52.088;5.084;2022-10-10T12:25:06;9.83;;;6.43;;
17566;SDS011;8901;52.088;5.084;2022-10-10T12:28:00;12.33;;;6.37;;
17566;SDS011;8901;52.088;5.084;2022-10-10T12:39:30;10.67;;;6.17;;
17566;SDS011;8901;52.088;5.084;2022-10-10T12:44:54;10.40;;;5.50;;
17566;SDS011;8901;52.088;5.084;2022-10-10T12:47:38;10.33;;;4.47;;
17566;SDS011;8901;52.088;5.084;2022-10-10T12:50:22;14.80;;;4.40;;
17566;SDS011;8901;52.088;5.084;2022-10-10T12:52:58;5.73;;;3.90;;
17566;SDS011;8901;52.088;5.084;2022-10-10T12:58:33;5.00;;;2.70;;
17566;SDS011;8901;52.088;5.084;2022-10-10T13:01:06;7.50;;;3.10;;
17566;SDS011;8901;52.088;5.084;2022-10-10T13:03:49;6.37;;;3.47;;
17566;SDS011;8901;52.088;5.084;2022-10-10T13:06:25;4.20;;;2.73;;
17566;SDS011;8901;52.088;5.084;2022-10-10T13:09:00;5.53;;;2.80;;
17566;SDS011;8901;52.088;5.084;2022-10-10T13:11:48;7.00;;;3.10;;
17566;SDS011;8901;52.088;5.084;2022-10-10T13:17:18;4.27;;;2.03;;
17566;SDS011;8901;52.088;5.084;2022-10-10T13:19:48;7.33;;;3.20;;
17566;SDS011;8901;52.088;5.084;2022-10-10T13:22:18;3.10;;;2.17;;
17566;SDS011;8901;52.088;5.084;2022-10-10T13:24:46;2.53;;;2.00;;
17566;SDS011;8901;52.088;5.084;2022-10-10T13:27:21;3.13;;;1.70;;
17566;SDS011;8901;52.088;5.084;2022-10-10T13:30:00;1.87;;;1.60;;
17566;SDS011;8901;52.088;5.084;2022-10-10T13:32:33;2.43;;;1.50;;
17566;SDS011;8901;52.088;5.084;2022-10-10T13:35:02;1.60;;;1.50;;
17566;SDS011;8901;52.088;5.084;2022-10-10T13:37:32;2.83;;;1.47;;
17566;SDS011;8901;52.088;5.084;2022-10-10T13:40:00;2.13;;;1.50;;
17566;SDS011;8901;52.088;5.084;2022-10-10T13:42:29;2.50;;;1.57;;
17566;SDS011;8901;52.088;5.084;2022-10-10T13:44:59;1.60;;;1.50;;
17566;SDS011;8901;52.088;5.084;2022-10-10T13:50:19;1.50;;;1.40;;
17566;SDS011;8901;52.088;5.084;2022-10-10T13:52:50;2.67;;;1.40;;
17566;SDS011;8901;52.088;5.084;2022-10-10T13:55:57;1.93;;;1.73;;
17566;SDS011;8901;52.088;5.084;2022-10-10T13:58:27;2.00;;;1.60;;
17566;SDS011;8901;52.088;5.084;2022-10-10T14:01:04;3.33;;;1.70;;
17566;SDS011;8901;52.088;5.084;2022-10-10T14:03:33;4.90;;;1.80;;
17566;SDS011;8901;52.088;5.084;2022-10-10T14:06:01;6.70;;;2.03;;
17566;SDS011;8901;52.088;5.084;2022-10-10T14:08:32;5.00;;;2.20;;
17566;SDS011;8901;52.088;5.084;2022-10-10T14:11:07;5.90;;;2.20;;
17566;SDS011;8901;52.088;5.084;2022-10-10T14:16:22;7.67;;;2.53;;
17566;SDS011;8901;52.088;5.084;2022-10-10T14:18:52;7.87;;;2.40;;
17566;SDS011;8901;52.088;5.084;2022-10-10T14:21:20;9.70;;;2.87;;
17566;SDS011;8901;52.088;5.084;2022-10-10T14:23:48;9.67;;;2.70;;
17566;SDS011;8901;52.088;5.084;2022-10-10T14:26:16;8.17;;;2.70;;
17566;SDS011;8901;52.088;5.084;2022-10-10T14:28:45;10.20;;;2.60;;
17566;SDS011;8901;52.088;5.084;2022-10-10T14:31:13;12.77;;;2.97;;
17566;SDS011;8901;52.088;5.084;2022-10-10T14:33:40;9.40;;;2.23;;
17566;SDS011;8901;52.088;5.084;2022-10-10T14:36:08;8.37;;;2.97;;
17566;SDS011;8901;52.088;5.084;2022-10-10T14:38:37;11.30;;;3.30;;
17566;SDS011;8901;52.088;5.084;2022-10-10T14:41:05;8.83;;;2.50;;
17566;SDS011;8901;52.088;5.084;2022-10-10T14:43:34;9.60;;;3.70;;
17566;SDS011;8901;52.088;5.084;2022-10-10T14:46:01;10.83;;;3.07;;
17566;SDS011;8901;52.088;5.084;2022-10-10T14:48:28;12.60;;;2.90;;
17566;SDS011;8901;52.088;5.084;2022-10-10T14:50:55;12.83;;;4.83;;
17566;SDS011;8901;52.088;5.084;2022-10-10T14:53:22;13.03;;;3.13;;
17566;SDS011;8901;52.088;5.084;2022-10-10T14:55:56;16.03;;;4.10;;
17566;SDS011;8901;52.088;5.084;2022-10-10T14:58:25;9.97;;;3.67;;
17566;SDS011;8901;52.088;5.084;2022-10-10T15:00:51;11.47;;;3.90;;
17566;SDS011;8901;52.088;5.084;2022-10-10T15:03:18;13.27;;;3.77;;
17566;SDS011;8901;52.088;5.084;2022-10-10T15:05:49;12.43;;;3.73;;
17566;SDS011;8901;52.088;5.084;2022-10-10T15:08:16;15.63;;;3.10;;
17566;SDS011;8901;52.088;5.084;2022-10-10T15:10:46;14.80;;;3.80;;
17566;SDS011;8901;52.088;5.084;2022-10-10T15:13:13;14.10;;;3.53;;
17566;SDS011;8901;52.088;5.084;2022-10-10T15:15:44;14.83;;;4.13;;
17566;SDS011;8901;52.088;5.084;2022-10-10T15:18:12;13.57;;;3.77;;
17566;SDS011;8901;52.088;5.084;2022-10-10T15:20:39;21.50;;;12.53;;
17566;SDS011;8901;52.088;5.084;2022-10-10T15:23:06;13.53;;;3.90;;
17566;SDS011;8901;52.088;5.084;2022-10-10T15:25:33;13.57;;;3.57;;
17566;SDS011;8901;52.088;5.084;2022-10-10T15:28:03;13.90;;;3.77;;
17566;SDS011;8901;52.088;5.084;2022-10-10T15:30:30;16.20;;;4.10;;
17566;SDS011;8901;52.088;5.084;2022-10-10T15:32:58;12.43;;;3.40;;
17566;SDS011;8901;52.088;5.084;2022-10-10T15:35:25;8.43;;;3.27;;
17566;SDS011;8901;52.088;5.084;2022-10-10T15:37:52;14.13;;;3.47;;
17566;SDS011;8901;52.088;5.084;2022-10-10T15:40:20;13.07;;;3.43;;
17566;SDS011;8901;52.088;5.084;2022-10-10T15:42:49;11.57;;;3.03;;
17566;SDS011;8901;52.088;5.084;2022-10-10T15:45:16;13.07;;;4.03;;